Time;durP1;ratioP1;P1;durP2;ratioP2;P2;SDS_P1;SDS_P2;PMS_P1;PMS_P2;Temp;Humidity;BMP_temperature;BMP_pressure;BME280_temperature;BME280_humidity;BME280_pressure;Samples;Min_cycle;Max_cycle;Signal;HPM_P1;HPM_P2
2021/12/28 00:01:10;;;;;;;44.15;24.60;;;;;;;-0.17;71.09;96817.72;12903648;22;20019;-84
2021/12/28 00:06:39;;;;;;;40.10;23.73;;;;;;;-0.18;70.68;96840.97;12862577;22;20005;-85
2021/12/28 00:12:13;;;;;;;43.40;25.05;;;;;;;-0.17;71.93;96836.94;12880185;22;20021;-82
2021/12/28 00:23:41;;;;;;;42.15;24.48;;;;;;;-0.03;70.70;96821.78;12893439;23;20031;-85
2021/12/28 00:29:17;;;;;;;45.35;26.08;;;;;;;-0.07;71.30;96813.19;12900301;22;20013;-84
2021/12/28 00:34:50;;;;;;;46.58;27.23;;;;;;;-0.07;71.78;96802.94;12862248;22;20023;-84
2021/12/28 00:40:14;;;;;;;42.53;25.15;;;;;;;-0.17;71.41;96812.25;12858588;23;20000;-84
2021/12/28 00:45:42;;;;;;;43.22;24.45;;;;;;;-0.21;71.50;96817.34;12838165;23;20056;-83
2021/12/28 00:51:14;;;;;;;42.17;24.13;;;;;;;-0.24;71.21;96796.50;12860990;23;20021;-86
2021/12/28 00:56:45;;;;;;;40.15;24.13;;;;;;;-0.21;72.13;96801.63;12901736;23;20016;-85
2021/12/28 01:02:14;;;;;;;40.28;23.25;;;;;;;-0.23;71.95;96831.59;12798888;23;20013;-84
2021/12/28 01:07:43;;;;;;;39.90;22.10;;;;;;;-0.17;71.97;96818.47;12839253;23;20017;-83
2021/12/28 01:13:33;;;;;;;41.25;24.30;;;;;;;-0.10;71.60;96809.50;12843170;23;20005;-85
2021/12/28 01:19:10;;;;;;;38.03;21.63;;;;;;;-0.16;71.96;96817.19;12820291;23;20025;-80
2021/12/28 01:24:40;;;;;;;42.03;24.75;;;;;;;-0.15;72.21;96820.66;12819069;23;20000;-83
2021/12/28 01:30:19;;;;;;;38.50;22.88;;;;;;;-0.20;72.16;96805.09;12799014;23;20056;-84
2021/12/28 01:35:46;;;;;;;38.33;23.00;;;;;;;-0.14;71.97;96808.41;12799217;23;20008;-85
2021/12/28 01:41:17;;;;;;;39.83;23.65;;;;;;;-0.11;72.02;96788.09;12796967;23;20089;-85
2021/12/28 01:47:00;;;;;;;41.35;22.42;;;;;;;-0.13;72.16;96799.63;12820582;23;20016;-85
2021/12/28 01:52:27;;;;;;;40.92;22.85;;;;;;;-0.25;72.40;96795.03;12800399;23;20012;-86
2021/12/28 01:57:56;;;;;;;41.10;22.70;;;;;;;-0.11;72.18;96796.34;12838037;23;20016;-82
2021/12/28 02:03:23;;;;;;;40.90;22.52;;;;;;;-0.05;72.32;96805.88;12810569;23;20040;-85
2021/12/28 02:08:53;;;;;;;40.20;22.23;;;;;;;-0.02;72.19;96810.25;12817852;23;20020;-84
2021/12/28 02:14:35;;;;;;;37.75;22.73;;;;;;;0.08;72.35;96812.47;12838512;23;20005;-84
2021/12/28 02:20:13;;;;;;;39.20;22.67;;;;;;;0.19;72.03;96803.88;12835089;23;20094;-84
2021/12/28 02:25:42;;;;;;;42.83;25.08;;;;;;;0.17;71.93;96795.47;12797943;23;20031;-85
2021/12/28 02:31:12;;;;;;;40.17;23.23;;;;;;;0.22;71.88;96786.34;12816612;23;20023;-84
2021/12/28 02:36:41;;;;;;;40.95;23.42;;;;;;;0.10;71.97;96768.75;12797663;23;20028;-83
2021/12/28 02:42:08;;;;;;;37.97;22.67;;;;;;;0.04;72.26;96768.94;12817081;23;20013;-83
2021/12/28 02:47:35;;;;;;;39.33;22.30;;;;;;;0.10;72.15;96763.28;12777652;23;20001;-81
2021/12/28 02:53:01;;;;;;;41.95;23.67;;;;;;;0.07;72.03;96754.09;12810292;23;20032;-83
2021/12/28 02:58:39;;;;;;;43.17;23.70;;;;;;;-0.01;72.07;96745.13;12797135;23;20036;-85
2021/12/28 03:04:16;;;;;;;39.72;22.95;;;;;;;-0.02;72.30;96740.94;12817976;23;20009;-85
2021/12/28 03:09:51;;;;;;;38.63;21.70;;;;;;;-0.06;72.37;96746.06;12821199;23;20020;-84
2021/12/28 03:15:20;;;;;;;42.28;22.60;;;;;;;-0.20;72.65;96725.53;12799050;23;20017;-84
2021/12/28 03:20:47;;;;;;;41.05;22.45;;;;;;;-0.13;72.12;96733.06;12819067;23;20024;-84
2021/12/28 03:26:14;;;;;;;47.03;23.45;;;;;;;-0.10;72.58;96729.94;12691024;23;20021;-82
2021/12/28 03:31:53;;;;;;;39.80;23.38;;;;;;;-0.13;72.37;96720.06;12745316;23;20013;-82
2021/12/28 03:37:25;;;;;;;;;;;;;;;-0.18;72.11;96712.03;12856625;23;20036;-81
2021/12/28 03:42:56;;;;;;;41.88;22.48;;;;;;;-0.24;72.14;96705.97;12724346;23;19905;-79
2021/12/28 03:48:22;;;;;;;40.28;22.27;;;;;;;-0.22;72.21;96706.16;12687212;23;20009;-83
2021/12/28 03:53:49;;;;;;;42.10;24.00;;;;;;;-0.22;72.57;96704.16;12796034;23;20748;-81
2021/12/28 04:05:36;;;;;;;42.25;23.80;;;;;;;-0.22;71.73;96676.00;12803863;23;20013;-82
2021/12/28 04:29:39;;;;;;;41.05;22.30;;;;;;;-0.32;71.38;96656.59;12719918;23;20013;-79
2021/12/28 04:35:17;;;;;;;40.65;22.40;;;;;;;-0.33;71.56;96668.84;12701591;23;20014;-84
2021/12/28 04:40:57;;;;;;;43.50;24.08;;;;;;;-0.35;71.16;96661.19;12590286;23;20019;-84
2021/12/28 04:46:59;;;;;;;40.00;22.02;;;;;;;-0.38;71.86;96645.84;12565046;23;20023;-85
2021/12/28 04:52:48;;;;;;;39.92;21.65;;;;;;;-0.38;71.63;96651.31;12594144;23;20034;-83
2021/12/28 04:58:51;;;;;;;44.72;22.50;;;;;;;-0.35;71.85;96638.53;12565498;23;20026;-83
2021/12/28 05:04:46;;;;;;;42.45;23.08;;;;;;;-0.33;71.19;96639.44;12671211;23;20087;-81
2021/12/28 05:11:01;;;;;;;39.65;22.83;;;;;;;-0.33;71.92;96647.66;12723897;23;20010;-80
2021/12/28 05:17:03;;;;;;;40.80;21.65;;;;;;;-0.30;71.89;96651.31;12730468;23;20010;-78
2021/12/28 05:22:43;;;;;;;44.15;21.33;;;;;;;-0.35;71.82;96652.97;12644019;23;20018;-79
2021/12/28 05:28:58;;;;;;;40.47;21.88;;;;;;;-0.25;72.15;96664.13;12674927;23;20020;-84
2021/12/28 05:34:59;;;;;;;40.42;23.38;;;;;;;-0.20;71.12;96671.41;12822134;23;20017;-83
2021/12/28 05:59:16;;;;;;;39.80;22.58;;;;;;;-0.12;71.33;96635.75;12805319;23;20016;-80
2021/12/28 06:04:44;;;;;;;38.58;21.42;;;;;;;-0.19;70.67;96634.50;12849201;23;20016;-81
2021/12/28 06:10:07;;;;;;;38.22;21.25;;;;;;;-0.32;70.57;96610.72;12894980;23;20025;-81
2021/12/28 06:15:49;;;;;;;36.80;20.80;;;;;;;-0.36;70.75;96604.88;12809557;23;20035;-79
2021/12/28 06:21:37;;;;;;;34.22;20.95;;;;;;;-0.25;70.98;96625.72;12804888;23;20052;-84
2021/12/28 06:27:08;;;;;;;34.08;20.35;;;;;;;-0.36;70.37;96621.34;12775213;23;20040;-82
2021/12/28 06:32:32;;;;;;;38.03;20.37;;;;;;;-0.42;70.52;96633.75;12822664;23;20048;-82
2021/12/28 06:37:55;;;;;;;37.83;19.60;;;;;;;-0.39;70.75;96649.09;12877975;23;20004;-80
2021/12/28 06:43:44;;;;;;;33.65;18.17;;;;;;;-0.22;70.50;96656.78;12828615;23;20072;-81
2021/12/28 06:55:57;;;;;;;34.78;19.77;;;;;;;-0.07;70.68;96634.84;12832429;23;20032;-83
2021/12/28 07:01:37;;;;;;;37.08;19.15;;;;;;;-0.03;69.96;96646.91;12825614;23;20005;-83
2021/12/28 07:07:43;;;;;;;32.15;19.35;;;;;;;-0.02;69.99;96639.41;12767732;23;20005;-82
2021/12/28 07:13:57;;;;;;;33.08;18.52;;;;;;;-0.19;70.31;96640.00;12749960;23;20056;-83
2021/12/28 07:19:36;;;;;;;31.33;18.02;;;;;;;-0.07;70.48;96627.34;12775022;23;20285;-82
2021/12/28 07:25:19;;;;;;;33.47;18.30;;;;;;;0.04;70.21;96611.81;12769617;23;20017;-83
2021/12/28 07:31:14;;;;;;;35.28;20.50;;;;;;;-0.04;70.06;96609.78;12818824;23;20024;-82
2021/12/28 07:37:09;;;;;;;34.90;19.85;;;;;;;-0.07;69.81;96612.91;12801205;23;20013;-82
2021/12/28 07:43:05;;;;;;;34.40;18.77;;;;;;;0.08;70.66;96612.88;12829250;23;20013;-82
2021/12/28 07:48:43;;;;;;;36.75;20.23;;;;;;;0.19;69.89;96601.53;12782456;23;20260;-82
2021/12/28 07:54:26;;;;;;;38.20;19.92;;;;;;;0.05;69.93;96603.00;12802166;23;20020;-84
2021/12/28 07:59:59;;;;;;;33.08;19.63;;;;;;;0.06;70.13;96601.72;12783147;23;20013;-82
2021/12/28 08:05:54;;;;;;;38.72;21.95;;;;;;;0.16;69.87;96594.38;12764797;23;20021;-83
2021/12/28 08:11:29;;;;;;;37.05;20.40;;;;;;;0.17;69.88;96587.59;12741415;23;20021;-84
2021/12/28 08:17:07;;;;;;;;;;;;;;;0.29;69.78;96566.00;12778861;23;20002;-83
2021/12/28 08:22:38;;;;;;;36.60;21.40;;;;;;;0.32;69.25;96575.16;12774938;23;19916;-83
2021/12/28 08:28:10;;;;;;;39.22;21.17;;;;;;;0.33;69.50;96565.63;12778054;23;20039;-82
2021/12/28 08:33:38;;;;;;;38.47;20.55;;;;;;;0.35;69.05;96585.75;12756921;23;20025;-82
2021/12/28 08:45:06;;;;;;;36.22;19.95;;;;;;;0.60;69.77;96607.09;12841650;23;19917;-84
2021/12/28 08:50:47;;;;;;;34.95;20.08;;;;;;;0.78;69.63;96609.38;12820818;23;20016;-84
2021/12/28 08:56:22;;;;;;;34.35;20.02;;;;;;;0.72;68.58;96606.13;12779874;23;20012;-84
2021/12/28 09:01:49;;;;;;;36.70;20.10;;;;;;;0.80;69.48;96606.09;12840148;23;20017;-83
2021/12/28 09:07:13;;;;;;;35.15;20.35;;;;;;;0.92;69.07;96611.88;12816780;23;20039;-84
2021/12/28 09:12:43;;;;;;;34.17;19.75;;;;;;;0.90;68.80;96600.72;12819127;23;20001;-84
2021/12/28 09:18:05;;;;;;;37.60;20.08;;;;;;;0.84;68.98;96603.66;12814977;23;20028;-83
2021/12/28 09:23:31;;;;;;;35.83;20.83;;;;;;;0.83;69.26;96610.47;12796806;23;20021;-79
2021/12/28 09:29:15;;;;;;;39.70;22.08;;;;;;;0.89;70.04;96588.28;12825322;23;20005;-84
2021/12/28 09:34:38;;;;;;;37.75;21.48;;;;;;;0.98;69.56;96596.66;12781019;23;20006;-82
2021/12/28 09:40:04;;;;;;;40.13;22.60;;;;;;;1.09;69.15;96604.47;12755436;23;20001;-81
2021/12/28 09:45:28;;;;;;;37.77;21.27;;;;;;;1.17;69.46;96604.44;12752790;23;20027;-82
2021/12/28 09:50:51;;;;;;;35.13;20.70;;;;;;;1.30;69.08;96587.66;12754107;23;20013;-84
2021/12/28 09:56:17;;;;;;;37.00;21.02;;;;;;;1.21;69.24;96573.78;12794750;23;20341;-84
2021/12/28 10:01:40;;;;;;;36.67;20.13;;;;;;;1.12;69.40;96553.88;12773609;23;20002;-80
2021/12/28 10:07:23;;;;;;;31.45;19.20;;;;;;;1.28;69.40;96531.78;12736154;23;20009;-84
2021/12/28 10:12:50;;;;;;;40.45;21.30;;;;;;;1.64;68.53;96523.78;12692940;23;20029;-83
2021/12/28 10:18:13;;;;;;;35.63;20.70;;;;;;;1.89;67.78;96558.75;12733193;23;20029;-82
2021/12/28 10:29:53;;;;;;;32.85;19.63;;;;;;;1.81;67.80;96552.59;12710482;23;20053;-81
2021/12/28 10:35:18;;;;;;;32.33;21.02;;;;;;;1.71;67.89;96533.25;12811094;23;20001;-84
2021/12/28 10:40:51;;;;;;;33.17;21.58;;;;;;;1.67;67.52;96530.91;12781716;23;20017;-81
2021/12/28 10:46:19;;;;;;;34.97;21.08;;;;;;;1.85;68.18;96508.91;12754474;23;20383;-83
2021/12/28 10:51:42;;;;;;;34.63;19.23;;;;;;;1.88;67.22;96514.00;12775709;23;20021;-83
2021/12/28 10:57:03;;;;;;;36.28;19.52;;;;;;;1.72;67.43;96526.44;12772998;23;20013;-83
2021/12/28 11:02:24;;;;;;;34.95;19.92;;;;;;;1.55;68.00;96518.91;12775175;23;20025;-81
2021/12/28 11:07:58;;;;;;;37.22;20.63;;;;;;;1.62;67.92;96518.09;12793315;23;20013;-82
2021/12/28 11:13:21;;;;;;;32.53;19.88;;;;;;;1.92;68.32;96517.06;12762146;23;20448;-78
2021/12/28 11:18:47;;;;;;;33.60;19.00;;;;;;;2.69;68.16;96508.63;12761133;23;20021;-80
2021/12/28 11:24:13;;;;;;;34.88;20.45;;;;;;;3.74;65.89;96504.81;12762412;23;20043;-80
2021/12/28 11:29:36;;;;;;;31.98;20.23;;;;;;;4.83;63.58;96497.38;12765416;23;20440;-82
2021/12/28 11:34:58;;;;;;;32.17;19.98;;;;;;;4.86;61.35;96493.41;12771039;23;20044;-81
2021/12/28 11:40:24;;;;;;;31.52;19.10;;;;;;;4.37;61.50;96496.88;12750540;23;20045;-81
2021/12/28 11:45:45;;;;;;;29.58;18.67;;;;;;;4.58;62.20;96491.44;12791672;23;20021;-80
2021/12/28 11:51:06;;;;;;;32.22;19.83;;;;;;;4.07;62.14;96484.38;12793830;23;20096;-79
2021/12/28 11:56:30;;;;;;;32.30;20.27;;;;;;;3.43;62.21;96482.53;12761013;23;20017;-79
2021/12/28 12:01:50;;;;;;;35.35;19.77;;;;;;;2.95;63.64;96471.34;12781074;23;20037;-79
2021/12/28 12:07:15;;;;;;;34.15;18.48;;;;;;;2.74;64.65;96446.31;12783952;23;20025;-79
2021/12/28 12:12:42;;;;;;;31.27;19.83;;;;;;;2.56;64.64;96429.84;12783098;23;20013;-79
2021/12/28 12:18:10;;;;;;;31.58;18.55;;;;;;;2.50;65.77;96421.09;12784245;23;20021;-79
2021/12/28 12:23:43;;;;;;;35.60;21.55;;;;;;;2.26;66.00;96402.72;12770216;23;20025;-82
2021/12/28 12:29:06;;;;;;;33.42;20.27;;;;;;;2.10;67.36;96390.44;12757642;23;20447;-79
2021/12/28 12:34:36;;;;;;;33.83;21.02;;;;;;;1.98;67.69;96385.44;12740846;23;20017;-78
2021/12/28 12:40:00;;;;;;;32.58;19.58;;;;;;;1.95;68.20;96381.09;12783547;23;20017;-78
2021/12/28 12:45:56;;;;;;;35.60;20.25;;;;;;;1.96;69.10;96384.56;12741824;23;20055;-79
2021/12/28 12:51:22;;;;;;;34.58;20.42;;;;;;;1.98;68.59;96387.47;12760098;23;20017;-79
2021/12/28 12:56:54;;;;;;;34.92;21.25;;;;;;;2.04;69.14;96365.22;12782461;23;20021;-78
2021/12/28 13:02:43;;;;;;;32.95;20.00;;;;;;;2.08;69.21;96352.47;12780439;23;20028;-78
2021/12/28 13:08:09;;;;;;;31.88;20.38;;;;;;;2.07;69.14;96342.03;12778866;23;20023;-78
2021/12/28 13:13:30;;;;;;;36.88;20.63;;;;;;;2.03;69.39;96325.97;12738710;23;20092;-79
2021/12/28 13:18:50;;;;;;;30.60;19.73;;;;;;;1.99;69.54;96317.38;12737887;23;20068;-78
2021/12/28 13:24:12;;;;;;;32.60;19.70;;;;;;;2.01;69.70;96310.00;12758598;23;20092;-78
2021/12/28 13:29:38;;;;;;;29.58;18.40;;;;;;;2.08;69.65;96296.72;12759341;23;20028;-78
2021/12/28 13:35:18;;;;;;;32.63;20.52;;;;;;;2.07;70.06;96289.75;12779547;23;20013;-78
2021/12/28 13:40:50;;;;;;;33.20;20.80;;;;;;;2.17;69.80;96282.25;12780219;23;20448;-78
2021/12/28 13:46:11;;;;;;;33.65;20.88;;;;;;;2.47;69.88;96279.03;12759938;23;20078;-78
2021/12/28 13:51:32;;;;;;;36.35;22.27;;;;;;;2.72;69.24;96273.28;12738077;23;20387;-79
2021/12/28 13:56:53;;;;;;;32.65;20.95;;;;;;;2.56;69.17;96270.06;12737515;23;20092;-79
2021/12/28 14:02:15;;;;;;;31.05;20.33;;;;;;;2.31;69.54;96253.03;12737454;23;20021;-79
2021/12/28 14:07:36;;;;;;;34.70;19.83;;;;;;;2.23;69.92;96242.16;12758422;23;20356;-79
2021/12/28 14:13:13;;;;;;;32.80;19.88;;;;;;;2.21;70.18;96230.97;12758143;23;20384;-78
2021/12/28 14:18:36;;;;;;;38.85;21.50;;;;;;;2.22;70.61;96237.19;12717653;23;20571;-78
2021/12/28 14:24:03;;;;;;;32.88;19.55;;;;;;;2.29;70.24;96236.34;12758277;23;20336;-78
2021/12/28 14:29:29;;;;;;;36.42;20.83;;;;;;;2.37;70.28;96230.72;12777958;23;20424;-78
2021/12/28 14:34:50;;;;;;;33.53;20.63;;;;;;;2.30;70.61;96229.53;12757435;23;20025;-78
2021/12/28 14:40:18;;;;;;;35.58;20.67;;;;;;;2.22;70.86;96240.69;12737733;23;20045;-78
2021/12/28 14:45:39;;;;;;;34.33;20.75;;;;;;;2.12;70.87;96244.69;12758425;23;20029;-78
2021/12/28 14:51:00;;;;;;;34.60;21.30;;;;;;;1.97;71.84;96224.38;12757789;23;20013;-78
2021/12/28 14:56:30;;;;;;;35.38;20.63;;;;;;;1.96;71.71;96231.19;12739458;23;20020;-78
2021/12/28 15:01:53;;;;;;;37.10;22.80;;;;;;;1.87;72.40;96228.41;12761665;23;20017;-78
2021/12/28 15:07:15;;;;;;;34.15;20.77;;;;;;;1.82;72.54;96221.84;12782079;23;20037;-78
2021/12/28 15:12:38;;;;;;;32.80;20.60;;;;;;;1.75;72.77;96236.44;12761901;23;20044;-78
2021/12/28 15:18:00;;;;;;;31.48;19.50;;;;;;;1.77;72.60;96231.09;12781498;23;20017;-78
2021/12/28 15:23:21;;;;;;;37.30;20.70;;;;;;;1.86;73.46;96235.91;12741157;23;20440;-78
2021/12/28 15:28:42;;;;;;;33.65;20.52;;;;;;;1.80;74.15;96229.94;12761401;23;20176;-77
2021/12/28 15:34:06;;;;;;;33.80;20.42;;;;;;;1.74;73.42;96218.50;12761842;23;20013;-78
2021/12/28 15:39:29;;;;;;;30.70;18.77;;;;;;;1.71;73.87;96211.38;12782263;23;20017;-78
2021/12/28 15:44:50;;;;;;;32.05;19.55;;;;;;;1.77;74.33;96217.34;12762565;23;20444;-76
2021/12/28 15:50:14;;;;;;;33.10;19.63;;;;;;;1.79;74.29;96214.00;12781440;23;20494;-77
2021/12/28 15:55:35;;;;;;;28.67;18.60;;;;;;;1.89;74.33;96201.75;12781202;23;20013;-77
2021/12/28 16:00:56;;;;;;;29.98;18.17;;;;;;;1.97;73.96;96207.13;12780765;23;20396;-78
2021/12/28 16:06:18;;;;;;;34.80;20.05;;;;;;;2.05;74.37;96191.25;12760699;23;20096;-77
2021/12/28 16:11:42;;;;;;;30.52;18.63;;;;;;;2.08;74.13;96183.84;12796132;23;20060;-82
2021/12/28 16:17:03;;;;;;;35.03;20.45;;;;;;;2.10;74.27;96181.25;12789746;23;20017;-82
2021/12/28 16:22:24;;;;;;;34.47;19.42;;;;;;;2.12;74.69;96179.34;12778033;23;20028;-81
2021/12/28 16:27:45;;;;;;;31.27;19.67;;;;;;;2.01;75.29;96163.41;12748883;23;20024;-82
2021/12/28 16:33:06;;;;;;;32.75;19.00;;;;;;;2.04;75.49;96158.78;12775217;23;20017;-82
2021/12/28 16:38:27;;;;;;;27.30;17.40;;;;;;;2.05;74.65;96163.00;12777776;23;20044;-85
2021/12/28 16:43:48;;;;;;;32.75;20.40;;;;;;;1.94;76.39;96159.50;12816434;23;20043;-85
2021/12/28 16:49:10;;;;;;;30.65;17.73;;;;;;;1.89;76.17;96152.22;12795372;23;20005;-85
2021/12/28 16:54:32;;;;;;;27.77;18.25;;;;;;;1.88;76.36;96153.53;12757167;23;20088;-81
2021/12/28 16:59:53;;;;;;;31.13;19.80;;;;;;;1.92;76.63;96139.31;12781134;23;19997;-86
2021/12/28 17:05:15;;;;;;;27.15;17.23;;;;;;;1.86;76.58;96139.63;12793504;23;20048;-82
2021/12/28 17:10:38;;;;;;;28.05;16.65;;;;;;;1.90;76.83;96137.16;12817512;23;20052;-83
2021/12/28 17:15:59;;;;;;;25.38;15.85;;;;;;;1.96;76.15;96139.66;12756953;23;20017;-79
2021/12/28 17:21:20;;;;;;;27.05;15.60;;;;;;;2.04;76.48;96134.00;12751645;23;20028;-81
2021/12/28 17:26:41;;;;;;;27.67;16.48;;;;;;;2.04;76.52;96120.25;12759437;23;20051;-77
2021/12/28 17:32:03;;;;;;;25.00;16.27;;;;;;;2.04;76.98;96117.50;12759741;23;20024;-77
2021/12/28 17:37:23;;;;;;;23.48;16.50;;;;;;;2.00;77.08;96115.88;12759662;23;20400;-77
2021/12/28 17:42:44;;;;;;;27.02;16.60;;;;;;;1.96;77.57;96109.38;12758847;23;20040;-76
2021/12/28 17:48:34;;;;;;;27.25;17.42;;;;;;;1.92;77.93;96118.03;12770346;23;20056;-77
2021/12/28 17:53:56;;;;;;;25.92;15.60;;;;;;;1.89;78.39;96116.44;12760579;23;20028;-77
2021/12/28 17:59:17;;;;;;;22.88;14.77;;;;;;;2.00;77.46;96115.88;12739203;23;20091;-77
2021/12/28 18:04:39;;;;;;;26.88;15.90;;;;;;;2.12;77.67;96124.31;12765436;23;20472;-77
2021/12/28 18:10:01;;;;;;;24.27;15.85;;;;;;;2.12;78.13;96112.56;12768574;23;20017;-82
2021/12/28 18:15:23;;;;;;;25.13;15.48;;;;;;;2.05;78.41;96102.44;12782008;23;20009;-81
2021/12/28 18:20:45;;;;;;;22.92;14.57;;;;;;;2.03;78.84;96103.03;12786063;23;20068;-81
2021/12/28 18:26:08;;;;;;;26.38;15.88;;;;;;;2.04;79.01;96103.75;12768832;23;20024;-79
2021/12/28 18:31:29;;;;;;;21.08;13.88;;;;;;;2.14;78.78;96112.75;12766851;23;20021;-80
2021/12/28 18:36:51;;;;;;;23.88;15.23;;;;;;;2.14;79.21;96105.22;12763541;23;20024;-80
2021/12/28 18:42:13;;;;;;;23.77;15.00;;;;;;;2.15;79.51;96116.94;12741444;23;20021;-79
2021/12/28 18:47:34;;;;;;;23.58;14.25;;;;;;;2.20;79.81;96118.66;12770307;23;20048;-80
2021/12/28 18:52:56;;;;;;;22.15;14.18;;;;;;;2.19;79.83;96095.91;12760601;23;20091;-79
2021/12/28 18:58:18;;;;;;;22.05;13.75;;;;;;;2.16;79.74;96112.88;12738172;23;20021;-79
2021/12/28 19:03:41;;;;;;;20.88;13.07;;;;;;;2.11;79.26;96116.63;12778636;23;20080;-79
2021/12/28 19:09:03;;;;;;;20.65;13.27;;;;;;;2.23;79.08;96117.53;12779638;23;20017;-79
2021/12/28 19:14:29;;;;;;;20.98;12.88;;;;;;;2.34;79.41;96144.50;12738788;23;20022;-79
2021/12/28 19:19:50;;;;;;;21.42;12.48;;;;;;;2.35;79.47;96151.44;12784391;23;20040;-81
2021/12/28 19:25:11;;;;;;;21.25;13.23;;;;;;;2.43;79.39;96149.28;12791160;23;20021;-83
2021/12/28 19:30:33;;;;;;;20.10;12.48;;;;;;;2.53;79.52;96150.03;12773521;23;20012;-83
2021/12/28 19:35:54;;;;;;;20.05;12.07;;;;;;;2.65;79.00;96144.66;12801328;23;20017;-82
2021/12/28 19:41:16;;;;;;;19.05;12.30;;;;;;;2.71;79.63;96136.13;12779634;23;20020;-80
2021/12/28 19:46:37;;;;;;;22.50;12.43;;;;;;;2.78;79.62;96151.75;12758936;23;20045;-80
2021/12/28 19:51:58;;;;;;;20.85;12.15;;;;;;;2.87;79.39;96148.25;12760704;23;20021;-83
2021/12/28 19:57:19;;;;;;;19.80;10.98;;;;;;;2.93;79.27;96150.75;12791267;23;20040;-81
2021/12/28 20:02:40;;;;;;;20.55;11.52;;;;;;;2.98;79.22;96147.66;12794720;23;20021;-82
2021/12/28 20:08:02;;;;;;;21.67;11.18;;;;;;;3.10;79.50;96142.31;12763429;23;20072;-81
2021/12/28 20:13:27;;;;;;;19.58;10.30;;;;;;;3.22;79.32;96150.69;12796397;23;20092;-81
2021/12/28 20:18:48;;;;;;;22.17;11.93;;;;;;;3.28;78.86;96148.34;12792890;23;20072;-83
2021/12/28 20:24:13;;;;;;;18.88;9.85;;;;;;;3.25;79.05;96144.00;12784155;23;20037;-84
2021/12/28 20:29:35;;;;;;;17.73;9.90;;;;;;;3.23;78.90;96132.84;12807344;23;20040;-83
2021/12/28 20:34:56;;;;;;;20.90;11.77;;;;;;;3.20;78.74;96128.50;12778880;23;20089;-83
2021/12/28 20:40:17;;;;;;;17.67;9.88;;;;;;;3.15;79.02;96125.44;12767942;23;20117;-84
2021/12/28 20:45:38;;;;;;;19.45;9.77;;;;;;;3.20;79.65;96131.25;12751234;23;20028;-82
2021/12/28 20:51:00;;;;;;;14.98;9.00;;;;;;;3.19;79.11;96127.06;12776095;23;20017;-82
2021/12/28 20:56:41;;;;;;;13.82;8.93;;;;;;;3.29;79.39;96127.75;12781222;23;20560;-81
2021/12/28 21:02:02;;;;;;;16.17;8.70;;;;;;;3.30;78.84;96131.97;12783024;23;20013;-82
2021/12/28 21:07:23;;;;;;;13.25;7.95;;;;;;;3.32;79.06;96134.84;12758697;23;20044;-81
2021/12/28 21:12:46;;;;;;;12.35;7.32;;;;;;;3.29;79.20;96144.31;12777933;23;20071;-81
2021/12/28 21:18:07;;;;;;;15.02;7.60;;;;;;;3.35;79.29;96139.19;12751526;23;20041;-80
2021/12/28 21:23:29;;;;;;;16.00;7.63;;;;;;;3.35;79.26;96144.69;12762223;23;20381;-80
2021/12/28 21:28:51;;;;;;;14.73;6.45;;;;;;;3.19;79.51;96160.88;12738652;23;20017;-80
2021/12/28 21:34:12;;;;;;;13.82;6.70;;;;;;;3.13;79.96;96166.66;12748951;23;20001;-84
2021/12/28 21:39:53;;;;;;;11.77;6.35;;;;;;;3.12;79.79;96181.75;12772916;23;20390;-83
2021/12/28 21:46:19;;;;;;;13.00;7.10;;;;;;;3.09;80.03;96180.19;12811927;23;20045;-82
2021/12/28 21:51:44;;;;;;;16.77;8.13;;;;;;;3.03;79.58;96185.25;12859657;23;20027;-83
2021/12/28 21:57:14;;;;;;;13.02;6.68;;;;;;;3.00;80.07;96200.22;12840248;23;20095;-83
2021/12/28 22:02:45;;;;;;;12.55;6.65;;;;;;;3.02;80.52;96203.09;12842015;23;20076;-83
2021/12/28 22:08:07;;;;;;;11.05;6.13;;;;;;;3.01;79.92;96207.16;12836643;23;20112;-83
2021/12/28 22:13:29;;;;;;;12.68;6.18;;;;;;;2.99;80.13;96220.81;12855418;23;20100;-82
2021/12/28 22:18:50;;;;;;;9.07;6.07;;;;;;;3.00;80.29;96216.75;12863017;23;20044;-82
2021/12/28 22:24:12;;;;;;;11.55;6.93;;;;;;;2.98;79.98;96213.81;12859729;23;20016;-83
2021/12/28 22:29:33;;;;;;;12.77;7.65;;;;;;;2.96;79.98;96207.44;12833055;23;20093;-83
2021/12/28 22:34:56;;;;;;;11.65;7.25;;;;;;;2.94;80.10;96208.03;12833472;23;20459;-83
2021/12/28 22:40:17;;;;;;;10.85;6.93;;;;;;;2.90;79.97;96213.28;12836838;23;20040;-83
2021/12/28 22:45:44;;;;;;;10.98;7.32;;;;;;;2.85;80.33;96217.03;12839575;23;20181;-83
2021/12/28 22:51:05;;;;;;;13.20;7.45;;;;;;;2.79;80.67;96209.03;12837108;23;20017;-83
2021/12/28 22:56:26;;;;;;;14.40;8.00;;;;;;;2.82;80.67;96207.16;12836552;23;20035;-83
2021/12/28 23:01:47;;;;;;;13.02;8.23;;;;;;;2.94;80.40;96207.31;12835962;23;20017;-82
2021/12/28 23:07:08;;;;;;;13.43;8.50;;;;;;;3.13;80.74;96212.81;12836306;23;20497;-83
2021/12/28 23:12:30;;;;;;;10.45;7.07;;;;;;;3.29;80.57;96213.97;12858852;23;20047;-82
2021/12/28 23:17:51;;;;;;;10.35;6.93;;;;;;;3.51;80.71;96206.53;12840823;23;20020;-83
2021/12/28 23:23:13;;;;;;;10.52;6.30;;;;;;;3.74;80.38;96211.53;12863902;23;20021;-83
2021/12/28 23:28:34;;;;;;;10.82;6.00;;;;;;;3.84;80.68;96208.75;12822857;23;20020;-83
2021/12/28 23:33:59;;;;;;;7.88;4.30;;;;;;;3.89;80.40;96210.47;12843084;23;20056;-83
2021/12/28 23:39:20;;;;;;;7.80;4.40;;;;;;;4.06;80.18;96212.31;12800231;23;20073;-83
2021/12/28 23:44:42;;;;;;;9.75;4.72;;;;;;;4.16;80.08;96204.69;12860165;23;20020;-83
2021/12/28 23:50:05;;;;;;;10.43;5.25;;;;;;;4.14;80.17;96201.78;12835580;23;20024;-82
2021/12/28 23:55:26;;;;;;;9.77;5.18;;;;;;;4.11;79.95;96202.97;12836294;23;20032;-83
